sensor_id;sensor_type;location;lat;lon;timestamp;P1;durP1;ratioP1;P2;durP2;ratioP2
44694;SDS011;32845;59.422;17.930;2023-06-24T00:03:57;7.35;;;3.55;;
44694;SDS011;32845;59.422;17.930;2023-06-24T00:08:27;10.88;;;3.10;;
44694;SDS011;32845;59.422;17.930;2023-06-24T00:13:16;6.35;;;3.03;;
44694;SDS011;32845;59.422;17.930;2023-06-24T00:17:47;9.43;;;2.75;;
44694;SDS011;32845;59.422;17.930;2023-06-24T00:22:29;6.15;;;3.08;;
44694;SDS011;32845;59.422;17.930;2023-06-24T00:26:59;5.22;;;3.28;;
44694;SDS011;32845;59.422;17.930;2023-06-24T00:31:30;7.13;;;3.65;;
44694;SDS011;32845;59.422;17.930;2023-06-24T00:36:00;6.22;;;3.60;;
44694;SDS011;32845;59.422;17.930;2023-06-24T00:40:37;8.93;;;3.55;;
44694;SDS011;32845;59.422;17.930;2023-06-24T00:45:09;6.70;;;3.63;;
44694;SDS011;32845;59.422;17.930;2023-06-24T00:49:40;4.57;;;2.75;;
44694;SDS011;32845;59.422;17.930;2023-06-24T00:54:15;5.97;;;2.92;;
44694;SDS011;32845;59.422;17.930;2023-06-24T00:58:49;4.30;;;2.83;;
44694;SDS011;32845;59.422;17.930;2023-06-24T01:03:20;5.93;;;3.05;;
44694;SDS011;32845;59.422;17.930;2023-06-24T01:07:51;17.52;;;4.28;;
44694;SDS011;32845;59.422;17.930;2023-06-24T01:12:25;5.93;;;3.55;;
44694;SDS011;32845;59.422;17.930;2023-06-24T01:16:59;6.55;;;3.10;;
44694;SDS011;32845;59.422;17.930;2023-06-24T01:22:28;5.30;;;3.10;;
44694;SDS011;32845;59.422;17.930;2023-06-24T01:27:05;7.72;;;2.60;;
44694;SDS011;32845;59.422;17.930;2023-06-24T01:36:37;6.30;;;2.50;;
44694;SDS011;32845;59.422;17.930;2023-06-24T01:41:10;4.32;;;2.80;;
44694;SDS011;32845;59.422;17.930;2023-06-24T01:45:45;4.10;;;2.55;;
44694;SDS011;32845;59.422;17.930;2023-06-24T01:50:21;6.82;;;2.85;;
44694;SDS011;32845;59.422;17.930;2023-06-24T01:54:53;4.47;;;2.70;;
44694;SDS011;32845;59.422;17.930;2023-06-24T01:59:27;4.35;;;2.22;;
44694;SDS011;32845;59.422;17.930;2023-06-24T02:04:00;2.20;;;1.70;;
44694;SDS011;32845;59.422;17.930;2023-06-24T02:08:33;4.00;;;1.95;;
44694;SDS011;32845;59.422;17.930;2023-06-24T02:13:05;3.40;;;2.22;;
44694;SDS011;32845;59.422;17.930;2023-06-24T02:17:39;2.60;;;1.70;;
44694;SDS011;32845;59.422;17.930;2023-06-24T02:22:15;3.47;;;1.60;;
44694;SDS011;32845;59.422;17.930;2023-06-24T02:26:47;2.55;;;1.90;;
44694;SDS011;32845;59.422;17.930;2023-06-24T02:31:19;2.60;;;1.85;;
44694;SDS011;32845;59.422;17.930;2023-06-24T02:35:50;5.38;;;2.40;;
44694;SDS011;32845;59.422;17.930;2023-06-24T02:40:21;3.53;;;2.00;;
44694;SDS011;32845;59.422;17.930;2023-06-24T02:44:51;4.07;;;2.47;;
44694;SDS011;32845;59.422;17.930;2023-06-24T02:49:22;6.00;;;2.20;;
44694;SDS011;32845;59.422;17.930;2023-06-24T02:53:53;3.60;;;2.53;;
44694;SDS011;32845;59.422;17.930;2023-06-24T02:58:25;2.38;;;1.80;;
44694;SDS011;32845;59.422;17.930;2023-06-24T03:03:04;2.38;;;1.75;;
44694;SDS011;32845;59.422;17.930;2023-06-24T03:07:36;3.20;;;1.92;;
44694;SDS011;32845;59.422;17.930;2023-06-24T03:12:08;3.28;;;2.08;;
44694;SDS011;32845;59.422;17.930;2023-06-24T03:16:39;3.90;;;2.13;;
44694;SDS011;32845;59.422;17.930;2023-06-24T03:21:15;3.22;;;2.13;;
44694;SDS011;32845;59.422;17.930;2023-06-24T03:25:45;3.20;;;1.98;;
44694;SDS011;32845;59.422;17.930;2023-06-24T03:30:16;2.60;;;1.77;;
44694;SDS011;32845;59.422;17.930;2023-06-24T03:34:47;2.22;;;1.35;;
44694;SDS011;32845;59.422;17.930;2023-06-24T03:39:17;1.90;;;1.10;;
44694;SDS011;32845;59.422;17.930;2023-06-24T03:43:48;5.18;;;1.20;;
44694;SDS011;32845;59.422;17.930;2023-06-24T03:48:18;3.40;;;1.20;;
44694;SDS011;32845;59.422;17.930;2023-06-24T03:52:49;1.70;;;1.20;;
44694;SDS011;32845;59.422;17.930;2023-06-24T03:57:19;3.20;;;1.15;;
44694;SDS011;32845;59.422;17.930;2023-06-24T04:01:55;6.38;;;1.40;;
44694;SDS011;32845;59.422;17.930;2023-06-24T04:06:26;1.80;;;1.33;;
44694;SDS011;32845;59.422;17.930;2023-06-24T04:11:02;3.75;;;1.30;;
44694;SDS011;32845;59.422;17.930;2023-06-24T04:15:33;2.05;;;1.05;;
44694;SDS011;32845;59.422;17.930;2023-06-24T04:20:04;4.20;;;1.52;;
44694;SDS011;32845;59.422;17.930;2023-06-24T04:24:38;1.75;;;0.75;;
44694;SDS011;32845;59.422;17.930;2023-06-24T04:29:09;4.05;;;1.00;;
44694;SDS011;32845;59.422;17.930;2023-06-24T04:33:39;1.85;;;0.93;;
44694;SDS011;32845;59.422;17.930;2023-06-24T04:38:10;2.22;;;0.80;;
44694;SDS011;32845;59.422;17.930;2023-06-24T04:42:45;6.28;;;1.10;;
44694;SDS011;32845;59.422;17.930;2023-06-24T04:47:17;4.00;;;0.95;;
44694;SDS011;32845;59.422;17.930;2023-06-24T04:51:47;1.88;;;0.77;;
44694;SDS011;32845;59.422;17.930;2023-06-24T04:56:18;3.08;;;0.98;;
44694;SDS011;32845;59.422;17.930;2023-06-24T05:00:48;3.30;;;0.90;;
44694;SDS011;32845;59.422;17.930;2023-06-24T05:05:19;2.17;;;0.90;;
44694;SDS011;32845;59.422;17.930;2023-06-24T05:09:50;3.08;;;1.08;;
44694;SDS011;32845;59.422;17.930;2023-06-24T05:14:21;2.85;;;1.02;;
44694;SDS011;32845;59.422;17.930;2023-06-24T05:18:52;2.38;;;0.70;;
44694;SDS011;32845;59.422;17.930;2023-06-24T05:23:27;4.53;;;0.65;;
44694;SDS011;32845;59.422;17.930;2023-06-24T05:27:58;6.93;;;1.42;;
44694;SDS011;32845;59.422;17.930;2023-06-24T05:32:34;1.27;;;0.68;;
44694;SDS011;32845;59.422;17.930;2023-06-24T05:37:04;2.72;;;1.08;;
44694;SDS011;32845;59.422;17.930;2023-06-24T05:41:35;2.88;;;0.60;;
44694;SDS011;32845;59.422;17.930;2023-06-24T05:46:06;1.45;;;0.70;;
44694;SDS011;32845;59.422;17.930;2023-06-24T05:50:37;7.07;;;1.05;;
44694;SDS011;32845;59.422;17.930;2023-06-24T05:55:08;2.05;;;0.80;;
44694;SDS011;32845;59.422;17.930;2023-06-24T05:59:39;8.43;;;0.90;;
44694;SDS011;32845;59.422;17.930;2023-06-24T06:04:09;5.18;;;0.77;;
44694;SDS011;32845;59.422;17.930;2023-06-24T06:08:40;4.57;;;0.90;;
44694;SDS011;32845;59.422;17.930;2023-06-24T06:13:12;2.78;;;1.25;;
44694;SDS011;32845;59.422;17.930;2023-06-24T06:17:42;2.55;;;0.80;;
44694;SDS011;32845;59.422;17.930;2023-06-24T06:22:20;2.83;;;1.10;;
44694;SDS011;32845;59.422;17.930;2023-06-24T06:26:50;1.27;;;0.55;;
44694;SDS011;32845;59.422;17.930;2023-06-24T06:31:26;1.38;;;0.52;;
44694;SDS011;32845;59.422;17.930;2023-06-24T06:35:56;2.72;;;0.85;;
44694;SDS011;32845;59.422;17.930;2023-06-24T06:40:32;2.00;;;0.60;;
44694;SDS011;32845;59.422;17.930;2023-06-24T06:45:03;3.25;;;0.95;;
44694;SDS011;32845;59.422;17.930;2023-06-24T06:49:34;13.00;;;0.90;;
44694;SDS011;32845;59.422;17.930;2023-06-24T06:54:04;3.38;;;0.70;;
44694;SDS011;32845;59.422;17.930;2023-06-24T06:58:35;2.38;;;0.55;;
44694;SDS011;32845;59.422;17.930;2023-06-24T07:03:05;1.17;;;0.70;;
44694;SDS011;32845;59.422;17.930;2023-06-24T07:07:36;1.35;;;0.70;;
44694;SDS011;32845;59.422;17.930;2023-06-24T07:12:11;1.40;;;0.75;;
44694;SDS011;32845;59.422;17.930;2023-06-24T07:16:43;3.08;;;0.90;;
44694;SDS011;32845;59.422;17.930;2023-06-24T07:21:19;1.38;;;0.80;;
44694;SDS011;32845;59.422;17.930;2023-06-24T07:25:50;1.45;;;0.75;;
44694;SDS011;32845;59.422;17.930;2023-06-24T07:30:21;1.27;;;0.60;;
44694;SDS011;32845;59.422;17.930;2023-06-24T07:34:51;4.35;;;1.05;;
44694;SDS011;32845;59.422;17.930;2023-06-24T07:39:22;2.05;;;1.13;;
44694;SDS011;32845;59.422;17.930;2023-06-24T07:43:52;3.50;;;1.08;;
44694;SDS011;32845;59.422;17.930;2023-06-24T07:48:23;2.20;;;0.98;;
44694;SDS011;32845;59.422;17.930;2023-06-24T07:52:53;6.47;;;1.60;;
44694;SDS011;32845;59.422;17.930;2023-06-24T07:57:24;2.17;;;0.90;;
44694;SDS011;32845;59.422;17.930;2023-06-24T08:01:56;2.78;;;0.93;;
44694;SDS011;32845;59.422;17.930;2023-06-24T08:06:27;2.63;;;0.95;;
44694;SDS011;32845;59.422;17.930;2023-06-24T08:11:03;3.55;;;0.82;;
44694;SDS011;32845;59.422;17.930;2023-06-24T08:15:33;1.75;;;0.70;;
44694;SDS011;32845;59.422;17.930;2023-06-24T08:20:04;1.83;;;0.70;;
44694;SDS011;32845;59.422;17.930;2023-06-24T08:24:36;1.83;;;0.90;;
44694;SDS011;32845;59.422;17.930;2023-06-24T08:29:06;1.20;;;0.80;;
44694;SDS011;32845;59.422;17.930;2023-06-24T08:33:37;4.07;;;0.95;;
44694;SDS011;32845;59.422;17.930;2023-06-24T08:38:08;1.17;;;0.70;;
44694;SDS011;32845;59.422;17.930;2023-06-24T08:42:43;5.32;;;0.75;;
44694;SDS011;32845;59.422;17.930;2023-06-24T08:47:14;3.00;;;1.00;;
44694;SDS011;32845;59.422;17.930;2023-06-24T08:51:46;2.05;;;0.90;;
44694;SDS011;32845;59.422;17.930;2023-06-24T08:56:39;2.28;;;0.93;;
44694;SDS011;32845;59.422;17.930;2023-06-24T09:01:11;2.15;;;1.10;;
44694;SDS011;32845;59.422;17.930;2023-06-24T09:05:42;2.80;;;0.80;;
44694;SDS011;32845;59.422;17.930;2023-06-24T09:10:30;4.35;;;0.88;;
44694;SDS011;32845;59.422;17.930;2023-06-24T09:15:02;2.42;;;0.77;;
44694;SDS011;32845;59.422;17.930;2023-06-24T09:19:33;1.58;;;1.00;;
44694;SDS011;32845;59.422;17.930;2023-06-24T09:24:11;1.88;;;0.75;;
44694;SDS011;32845;59.422;17.930;2023-06-24T09:28:41;3.50;;;0.93;;
44694;SDS011;32845;59.422;17.930;2023-06-24T09:33:17;5.93;;;2.00;;
44694;SDS011;32845;59.422;17.930;2023-06-24T09:37:52;3.05;;;0.70;;
44694;SDS011;32845;59.422;17.930;2023-06-24T09:42:25;0.88;;;0.77;;
44694;SDS011;32845;59.422;17.930;2023-06-24T09:46:56;5.20;;;0.80;;
44694;SDS011;32845;59.422;17.930;2023-06-24T09:51:26;3.92;;;1.08;;
44694;SDS011;32845;59.422;17.930;2023-06-24T09:56:03;1.85;;;0.70;;
44694;SDS011;32845;59.422;17.930;2023-06-24T10:00:39;3.08;;;0.70;;
44694;SDS011;32845;59.422;17.930;2023-06-24T10:05:10;1.38;;;0.73;;
44694;SDS011;32845;59.422;17.930;2023-06-24T10:09:41;4.53;;;0.80;;
44694;SDS011;32845;59.422;17.930;2023-06-24T10:14:16;0.90;;;0.70;;
44694;SDS011;32845;59.422;17.930;2023-06-24T10:18:47;2.45;;;0.73;;
44694;SDS011;32845;59.422;17.930;2023-06-24T10:23:29;1.52;;;0.90;;
44694;SDS011;32845;59.422;17.930;2023-06-24T10:28:04;0.60;;;0.60;;
44694;SDS011;32845;59.422;17.930;2023-06-24T10:32:41;2.63;;;1.02;;
44694;SDS011;32845;59.422;17.930;2023-06-24T10:37:22;1.27;;;0.85;;
44694;SDS011;32845;59.422;17.930;2023-06-24T10:41:56;4.03;;;1.20;;
44694;SDS011;32845;59.422;17.930;2023-06-24T10:46:27;2.17;;;1.00;;
44694;SDS011;32845;59.422;17.930;2023-06-24T10:51:02;1.60;;;1.13;;
44694;SDS011;32845;59.422;17.930;2023-06-24T10:55:33;4.53;;;1.20;;
44694;SDS011;32845;59.422;17.930;2023-06-24T11:00:06;2.75;;;1.30;;
44694;SDS011;32845;59.422;17.930;2023-06-24T11:04:53;6.68;;;1.42;;
44694;SDS011;32845;59.422;17.930;2023-06-24T11:09:25;3.57;;;1.20;;
44694;SDS011;32845;59.422;17.930;2023-06-24T11:13:56;1.85;;;1.00;;
44694;SDS011;32845;59.422;17.930;2023-06-24T11:18:36;3.83;;;1.00;;
44694;SDS011;32845;59.422;17.930;2023-06-24T11:23:13;3.10;;;1.20;;
44694;SDS011;32845;59.422;17.930;2023-06-24T11:27:43;2.28;;;1.00;;
44694;SDS011;32845;59.422;17.930;2023-06-24T11:32:24;2.72;;;1.10;;
44694;SDS011;32845;59.422;17.930;2023-06-24T11:36:55;4.05;;;1.10;;
44694;SDS011;32845;59.422;17.930;2023-06-24T11:41:25;2.28;;;1.20;;
44694;SDS011;32845;59.422;17.930;2023-06-24T11:45:57;5.07;;;1.10;;
44694;SDS011;32845;59.422;17.930;2023-06-24T11:50:33;2.72;;;0.90;;
44694;SDS011;32845;59.422;17.930;2023-06-24T11:59:51;2.58;;;0.93;;
44694;SDS011;32845;59.422;17.930;2023-06-24T12:04:31;2.30;;;1.10;;
44694;SDS011;32845;59.422;17.930;2023-06-24T12:09:03;0.98;;;0.88;;
44694;SDS011;32845;59.422;17.930;2023-06-24T12:13:34;1.77;;;1.10;;
44694;SDS011;32845;59.422;17.930;2023-06-24T12:18:05;3.28;;;1.40;;
44694;SDS011;32845;59.422;17.930;2023-06-24T12:22:36;2.13;;;1.17;;
44694;SDS011;32845;59.422;17.930;2023-06-24T12:27:06;2.28;;;1.23;;
44694;SDS011;32845;59.422;17.930;2023-06-24T12:31:37;3.63;;;1.25;;
44694;SDS011;32845;59.422;17.930;2023-06-24T12:36:08;1.60;;;1.10;;
44694;SDS011;32845;59.422;17.930;2023-06-24T12:40:38;3.50;;;1.15;;
44694;SDS011;32845;59.422;17.930;2023-06-24T12:45:09;3.72;;;1.42;;
44694;SDS011;32845;59.422;17.930;2023-06-24T12:49:40;2.67;;;1.15;;
44694;SDS011;32845;59.422;17.930;2023-06-24T12:54:10;3.20;;;1.30;;
44694;SDS011;32845;59.422;17.930;2023-06-24T12:58:41;2.30;;;1.02;;
44694;SDS011;32845;59.422;17.930;2023-06-24T13:03:12;5.80;;;1.33;;
44694;SDS011;32845;59.422;17.930;2023-06-24T13:07:42;1.85;;;1.10;;
44694;SDS011;32845;59.422;17.930;2023-06-24T13:12:13;4.93;;;1.20;;
44694;SDS011;32845;59.422;17.930;2023-06-24T13:16:44;1.30;;;0.93;;
44694;SDS011;32845;59.422;17.930;2023-06-24T13:21:14;1.50;;;1.02;;
44694;SDS011;32845;59.422;17.930;2023-06-24T13:25:45;2.95;;;1.30;;
44694;SDS011;32845;59.422;17.930;2023-06-24T13:30:15;6.30;;;1.67;;
44694;SDS011;32845;59.422;17.930;2023-06-24T13:34:46;2.80;;;1.40;;
44694;SDS011;32845;59.422;17.930;2023-06-24T13:39:17;1.90;;;1.30;;
44694;SDS011;32845;59.422;17.930;2023-06-24T13:43:48;3.08;;;1.20;;
44694;SDS011;32845;59.422;17.930;2023-06-24T13:48:18;2.25;;;1.38;;
44694;SDS011;32845;59.422;17.930;2023-06-24T13:52:49;1.75;;;1.20;;
44694;SDS011;32845;59.422;17.930;2023-06-24T13:57:19;1.90;;;1.40;;
44694;SDS011;32845;59.422;17.930;2023-06-24T14:01:50;2.30;;;1.27;;
44694;SDS011;32845;59.422;17.930;2023-06-24T14:06:22;2.35;;;1.30;;
44694;SDS011;32845;59.422;17.930;2023-06-24T14:10:58;3.33;;;1.38;;
44694;SDS011;32845;59.422;17.930;2023-06-24T14:15:30;2.63;;;1.20;;
44694;SDS011;32845;59.422;17.930;2023-06-24T14:20:00;3.97;;;1.70;;
44694;SDS011;32845;59.422;17.930;2023-06-24T14:24:31;5.25;;;2.08;;
44694;SDS011;32845;59.422;17.930;2023-06-24T14:29:02;4.78;;;1.23;;
44694;SDS011;32845;59.422;17.930;2023-06-24T14:33:33;4.28;;;1.30;;
44694;SDS011;32845;59.422;17.930;2023-06-24T14:38:03;5.45;;;1.10;;
44694;SDS011;32845;59.422;17.930;2023-06-24T14:42:35;7.85;;;1.20;;
44694;SDS011;32845;59.422;17.930;2023-06-24T14:47:06;1.35;;;1.10;;
44694;SDS011;32845;59.422;17.930;2023-06-24T14:51:37;2.47;;;1.30;;
44694;SDS011;32845;59.422;17.930;2023-06-24T14:56:07;1.50;;;1.17;;
44694;SDS011;32845;59.422;17.930;2023-06-24T15:00:43;1.70;;;1.15;;
44694;SDS011;32845;59.422;17.930;2023-06-24T15:05:14;2.55;;;1.20;;
44694;SDS011;32845;59.422;17.930;2023-06-24T15:09:44;1.92;;;1.13;;
44694;SDS011;32845;59.422;17.930;2023-06-24T15:14:15;2.78;;;1.42;;
44694;SDS011;32845;59.422;17.930;2023-06-24T15:18:46;1.77;;;1.25;;
44694;SDS011;32845;59.422;17.930;2023-06-24T15:23:17;2.50;;;1.30;;
44694;SDS011;32845;59.422;17.930;2023-06-24T15:27:48;6.03;;;1.38;;
44694;SDS011;32845;59.422;17.930;2023-06-24T15:32:19;1.55;;;1.10;;
44694;SDS011;32845;59.422;17.930;2023-06-24T15:36:49;3.35;;;1.10;;
44694;SDS011;32845;59.422;17.930;2023-06-24T15:41:20;2.55;;;1.00;;
44694;SDS011;32845;59.422;17.930;2023-06-24T15:45:51;2.30;;;1.25;;
44694;SDS011;32845;59.422;17.930;2023-06-24T15:50:32;2.67;;;1.30;;
44694;SDS011;32845;59.422;17.930;2023-06-24T15:55:02;2.13;;;1.13;;
44694;SDS011;32845;59.422;17.930;2023-06-24T15:59:33;1.60;;;0.88;;
44694;SDS011;32845;59.422;17.930;2023-06-24T16:04:04;2.53;;;1.40;;
44694;SDS011;32845;59.422;17.930;2023-06-24T16:08:34;2.47;;;1.40;;
44694;SDS011;32845;59.422;17.930;2023-06-24T16:13:10;1.40;;;1.10;;
44694;SDS011;32845;59.422;17.930;2023-06-24T16:17:42;1.75;;;1.15;;
44694;SDS011;32845;59.422;17.930;2023-06-24T16:22:18;6.60;;;1.45;;
44694;SDS011;32845;59.422;17.930;2023-06-24T16:26:49;2.58;;;1.60;;
44694;SDS011;32845;59.422;17.930;2023-06-24T16:31:19;2.53;;;1.42;;
44694;SDS011;32845;59.422;17.930;2023-06-24T16:35:51;3.38;;;1.60;;
44694;SDS011;32845;59.422;17.930;2023-06-24T16:40:21;2.80;;;1.50;;
44694;SDS011;32845;59.422;17.930;2023-06-24T16:44:52;1.75;;;1.20;;
44694;SDS011;32845;59.422;17.930;2023-06-24T16:49:23;2.38;;;1.30;;
44694;SDS011;32845;59.422;17.930;2023-06-24T16:53:54;3.03;;;1.17;;
44694;SDS011;32845;59.422;17.930;2023-06-24T16:58:24;2.30;;;1.42;;
44694;SDS011;32845;59.422;17.930;2023-06-24T17:02:55;1.55;;;1.10;;
44694;SDS011;32845;59.422;17.930;2023-06-24T17:07:25;1.85;;;1.20;;
44694;SDS011;32845;59.422;17.930;2023-06-24T17:12:01;5.35;;;1.35;;
44694;SDS011;32845;59.422;17.930;2023-06-24T17:16:32;4.68;;;1.30;;
44694;SDS011;32845;59.422;17.930;2023-06-24T17:21:08;1.50;;;1.20;;
44694;SDS011;32845;59.422;17.930;2023-06-24T17:25:39;1.58;;;1.13;;
44694;SDS011;32845;59.422;17.930;2023-06-24T17:30:09;2.53;;;1.15;;
44694;SDS011;32845;59.422;17.930;2023-06-24T17:34:40;1.63;;;1.02;;
44694;SDS011;32845;59.422;17.930;2023-06-24T17:39:11;2.08;;;1.23;;
44694;SDS011;32845;59.422;17.930;2023-06-24T17:43:50;1.17;;;1.08;;
44694;SDS011;32845;59.422;17.930;2023-06-24T17:48:21;2.08;;;1.48;;
44694;SDS011;32845;59.422;17.930;2023-06-24T17:52:52;2.17;;;1.25;;
44694;SDS011;32845;59.422;17.930;2023-06-24T17:57:23;1.90;;;1.13;;
44694;SDS011;32845;59.422;17.930;2023-06-24T18:01:53;2.42;;;1.17;;
44694;SDS011;32845;59.422;17.930;2023-06-24T18:06:24;3.83;;;1.27;;
44694;SDS011;32845;59.422;17.930;2023-06-24T18:11:01;3.28;;;1.20;;
44694;SDS011;32845;59.422;17.930;2023-06-24T18:15:31;2.40;;;1.52;;
44694;SDS011;32845;59.422;17.930;2023-06-24T18:20:12;2.65;;;1.30;;
44694;SDS011;32845;59.422;17.930;2023-06-24T18:24:43;2.90;;;1.27;;
44694;SDS011;32845;59.422;17.930;2023-06-24T18:29:13;1.65;;;1.20;;
44694;SDS011;32845;59.422;17.930;2023-06-24T18:33:44;2.30;;;1.30;;
44694;SDS011;32845;59.422;17.930;2023-06-24T18:38:14;2.38;;;1.40;;
44694;SDS011;32845;59.422;17.930;2023-06-24T18:42:45;1.65;;;1.23;;
44694;SDS011;32845;59.422;17.930;2023-06-24T18:47:15;2.55;;;1.45;;
44694;SDS011;32845;59.422;17.930;2023-06-24T18:51:46;3.05;;;1.48;;
44694;SDS011;32845;59.422;17.930;2023-06-24T18:56:16;2.63;;;1.55;;
44694;SDS011;32845;59.422;17.930;2023-06-24T19:00:52;2.30;;;1.10;;
44694;SDS011;32845;59.422;17.930;2023-06-24T19:05:23;1.75;;;1.20;;
44694;SDS011;32845;59.422;17.930;2023-06-24T19:09:53;4.22;;;1.73;;
44694;SDS011;32845;59.422;17.930;2023-06-24T19:14:24;3.03;;;1.48;;
44694;SDS011;32845;59.422;17.930;2023-06-24T19:18:55;2.80;;;1.67;;
44694;SDS011;32845;59.422;17.930;2023-06-24T19:23:26;3.03;;;1.50;;
44694;SDS011;32845;59.422;17.930;2023-06-24T19:27:56;2.15;;;1.45;;
44694;SDS011;32845;59.422;17.930;2023-06-24T19:32:27;2.97;;;1.92;;
44694;SDS011;32845;59.422;17.930;2023-06-24T19:36:57;2.92;;;1.83;;
44694;SDS011;32845;59.422;17.930;2023-06-24T19:41:28;6.75;;;1.52;;
44694;SDS011;32845;59.422;17.930;2023-06-24T19:45:59;4.70;;;1.88;;
44694;SDS011;32845;59.422;17.930;2023-06-24T19:50:39;3.33;;;1.70;;
44694;SDS011;32845;59.422;17.930;2023-06-24T19:55:10;3.65;;;1.60;;
44694;SDS011;32845;59.422;17.930;2023-06-24T19:59:40;4.65;;;1.60;;
44694;SDS011;32845;59.422;17.930;2023-06-24T20:04:11;6.43;;;1.60;;
44694;SDS011;32845;59.422;17.930;2023-06-24T20:08:42;5.82;;;1.73;;
44694;SDS011;32845;59.422;17.930;2023-06-24T20:13:17;4.80;;;2.17;;
44694;SDS011;32845;59.422;17.930;2023-06-24T20:17:48;3.13;;;1.30;;
44694;SDS011;32845;59.422;17.930;2023-06-24T20:22:18;3.60;;;1.50;;
44694;SDS011;32845;59.422;17.930;2023-06-24T20:26:50;3.92;;;1.70;;
44694;SDS011;32845;59.422;17.930;2023-06-24T20:31:21;2.15;;;1.42;;
44694;SDS011;32845;59.422;17.930;2023-06-24T20:35:51;5.47;;;1.58;;
44694;SDS011;32845;59.422;17.930;2023-06-24T20:40:22;3.20;;;1.50;;
44694;SDS011;32845;59.422;17.930;2023-06-24T20:44:52;2.83;;;1.45;;
44694;SDS011;32845;59.422;17.930;2023-06-24T20:49:23;7.10;;;1.85;;
44694;SDS011;32845;59.422;17.930;2023-06-24T20:53:53;4.60;;;2.17;;
44694;SDS011;32845;59.422;17.930;2023-06-24T20:58:24;4.90;;;1.55;;
44694;SDS011;32845;59.422;17.930;2023-06-24T21:02:55;4.25;;;1.80;;
44694;SDS011;32845;59.422;17.930;2023-06-24T21:07:25;3.85;;;1.60;;
44694;SDS011;32845;59.422;17.930;2023-06-24T21:11:56;8.98;;;2.00;;
44694;SDS011;32845;59.422;17.930;2023-06-24T21:16:26;6.15;;;2.20;;
44694;SDS011;32845;59.422;17.930;2023-06-24T21:20:57;3.03;;;1.92;;
44694;SDS011;32845;59.422;17.930;2023-06-24T21:25:27;6.35;;;1.70;;
44694;SDS011;32845;59.422;17.930;2023-06-24T21:29:58;7.22;;;1.63;;
44694;SDS011;32845;59.422;17.930;2023-06-24T21:34:29;4.63;;;1.90;;
44694;SDS011;32845;59.422;17.930;2023-06-24T21:38:59;3.55;;;1.80;;
44694;SDS011;32845;59.422;17.930;2023-06-24T21:43:30;3.67;;;1.88;;
44694;SDS011;32845;59.422;17.930;2023-06-24T21:48:00;6.30;;;1.75;;
44694;SDS011;32845;59.422;17.930;2023-06-24T21:52:32;4.68;;;1.83;;
44694;SDS011;32845;59.422;17.930;2023-06-24T21:57:03;3.65;;;1.80;;
44694;SDS011;32845;59.422;17.930;2023-06-24T22:01:34;4.10;;;1.85;;
44694;SDS011;32845;59.422;17.930;2023-06-24T22:06:05;5.72;;;1.80;;
44694;SDS011;32845;59.422;17.930;2023-06-24T22:10:35;4.38;;;1.90;;
44694;SDS011;32845;59.422;17.930;2023-06-24T22:15:06;5.20;;;1.88;;
44694;SDS011;32845;59.422;17.930;2023-06-24T22:19:36;4.20;;;1.63;;
44694;SDS011;32845;59.422;17.930;2023-06-24T22:24:07;2.83;;;1.73;;
44694;SDS011;32845;59.422;17.930;2023-06-24T22:28:38;2.60;;;1.80;;
44694;SDS011;32845;59.422;17.930;2023-06-24T22:33:08;3.30;;;1.92;;
44694;SDS011;32845;59.422;17.930;2023-06-24T22:37:39;4.60;;;1.60;;
44694;SDS011;32845;59.422;17.930;2023-06-24T22:42:15;5.35;;;1.77;;
44694;SDS011;32845;59.422;17.930;2023-06-24T22:46:46;6.13;;;2.00;;
44694;SDS011;32845;59.422;17.930;2023-06-24T22:51:16;6.63;;;2.20;;
44694;SDS011;32845;59.422;17.930;2023-06-24T22:55:47;5.55;;;2.03;;
44694;SDS011;32845;59.422;17.930;2023-06-24T23:00:18;3.67;;;2.00;;
44694;SDS011;32845;59.422;17.930;2023-06-24T23:04:48;2.47;;;1.83;;
44694;SDS011;32845;59.422;17.930;2023-06-24T23:09:19;3.85;;;1.90;;
44694;SDS011;32845;59.422;17.930;2023-06-24T23:14:00;3.85;;;2.03;;
44694;SDS011;32845;59.422;17.930;2023-06-24T23:18:31;3.05;;;1.90;;
44694;SDS011;32845;59.422;17.930;2023-06-24T23:23:04;9.65;;;2.13;;
44694;SDS011;32845;59.422;17.930;2023-06-24T23:27:35;2.92;;;1.83;;
44694;SDS011;32845;59.422;17.930;2023-06-24T23:32:09;4.00;;;1.90;;
44694;SDS011;32845;59.422;17.930;2023-06-24T23:36:40;3.47;;;1.90;;
44694;SDS011;32845;59.422;17.930;2023-06-24T23:41:11;3.78;;;2.47;;
44694;SDS011;32845;59.422;17.930;2023-06-24T23:45:47;7.57;;;2.83;;
44694;SDS011;32845;59.422;17.930;2023-06-24T23:50:19;5.40;;;2.30;;
44694;SDS011;32845;59.422;17.930;2023-06-24T23:54:50;6.65;;;2.60;;
44694;SDS011;32845;59.422;17.930;2023-06-24T23:59:20;4.38;;;2.28;;
